Time;durP1;ratioP1;P1;durP2;ratioP2;P2;SDS_P1;SDS_P2;PMS_P1;PMS_P2;Temp;Humidity;BMP_temperature;BMP_pressure;BME280_temperature;BME280_humidity;BME280_pressure;Samples;Min_cycle;Max_cycle;Signal;HPM_P1;HPM_P2
2023/06/05 00:00:42;;;;;;;;;;;21.80;45.40;;;;;;5037310;28;19909;-80
2023/06/05 00:03:07;;;;;;;;;;;21.80;45.50;;;;;;5036792;28;19909;-80
2023/06/05 00:05:33;;;;;;;;;;;21.80;45.50;;;;;;5037749;28;19912;-80
2023/06/05 00:07:59;;;;;;;;;;;21.80;45.50;;;;;;5053370;28;19992;-80
2023/06/05 00:10:25;;;;;;;;;;;21.80;45.50;;;;;;5037274;28;19992;-80
2023/06/05 00:12:50;;;;;;;;;;;21.80;45.50;;;;;;5037556;28;20112;-80
2023/06/05 00:15:16;;;;;;;;;;;21.80;45.50;;;;;;5040088;28;19912;-80
2023/06/05 00:17:42;;;;;;;;;;;21.70;45.50;;;;;;5040516;28;19912;-80
2023/06/05 00:20:12;;;;;;;;;;;21.70;45.50;;;;;;5038690;28;19917;-80
2023/06/05 00:22:38;;;;;;;;;;;21.70;45.60;;;;;;5038154;28;20010;-80
2023/06/05 00:25:04;;;;;;;;;;;21.70;45.60;;;;;;5037285;28;19956;-80
2023/06/05 00:27:30;;;;;;;;;;;21.70;45.60;;;;;;5038460;28;20141;-80
2023/06/05 00:29:56;;;;;;;;;;;21.70;45.60;;;;;;5055980;28;19909;-80
2023/06/05 00:32:21;;;;;;;;;;;21.70;45.70;;;;;;5039444;28;19909;-80
2023/06/05 00:34:49;;;;;;;;;;;21.60;45.60;;;;;;5038079;28;20360;-80
2023/06/05 00:37:15;;;;;;;;;;;21.60;45.70;;;;;;5057202;28;20198;-80
2023/06/05 00:39:41;;;;;;;;;;;21.60;45.70;;;;;;5039454;28;19909;-80
2023/06/05 00:42:08;;;;;;;;;;;21.60;45.70;;;;;;5039229;28;19912;-80
2023/06/05 00:44:35;;;;;;;;;;;21.60;45.70;;;;;;5040331;28;19927;-80
2023/06/05 00:47:01;;;;;;;;;;;21.60;45.70;;;;;;5040702;28;20184;-80
2023/06/05 00:49:27;;;;;;;;;;;21.60;45.70;;;;;;5056885;28;19970;-80
2023/06/05 00:51:52;;;;;;;;;;;21.60;45.70;;;;;;5057804;28;20239;-80
2023/06/05 00:54:20;;;;;;;;;;;21.50;45.70;;;;;;5040607;28;19959;-80
2023/06/05 00:56:46;;;;;;;;;;;21.50;45.70;;;;;;5039407;28;20417;-80
2023/06/05 00:59:13;;;;;;;;;;;21.50;45.70;;;;;;5040495;28;19991;-80
2023/06/05 01:01:43;;;;;;;;;;;21.50;45.80;;;;;;5037479;28;19909;-80
2023/06/05 01:04:09;;;;;;;;;;;21.50;45.80;;;;;;5038652;28;19936;-80
2023/06/05 01:06:38;;;;;;;;;;;21.50;45.80;;;;;;5056570;28;19909;-80
2023/06/05 01:09:05;;;;;;;;;;;21.40;45.80;;;;;;5039373;28;20403;-80
2023/06/05 01:11:49;;;;;;;;;;;21.40;45.80;;;;;;5040089;28;19909;-79
2023/06/05 01:14:18;;;;;;;;;;;21.40;45.80;;;;;;5040800;28;20411;-79
2023/06/05 01:16:47;;;;;;;;;;;21.40;45.80;;;;;;5041339;28;19947;-80
2023/06/05 01:19:14;;;;;;;;;;;21.40;45.90;;;;;;5050064;28;20186;-80
2023/06/05 01:21:46;;;;;;;;;;;21.40;45.90;;;;;;5039920;28;19935;-80
2023/06/05 01:24:13;;;;;;;;;;;21.30;45.80;;;;;;5040029;28;19917;-80
2023/06/05 01:27:02;;;;;;;;;;;21.30;45.90;;;;;;5040431;28;19945;-80
2023/06/05 01:29:37;;;;;;;;;;;21.30;45.90;;;;;;5040461;28;19974;-80
2023/06/05 01:32:12;;;;;;;;;;;21.30;45.90;;;;;;5058111;28;20329;-80
2023/06/05 01:34:38;;;;;;;;;;;21.30;46.00;;;;;;5039364;28;19916;-80
2023/06/05 01:37:04;;;;;;;;;;;21.30;46.00;;;;;;5057680;28;19913;-80
2023/06/05 01:39:31;;;;;;;;;;;21.30;46.00;;;;;;5040500;28;19909;-80
2023/06/05 01:41:58;;;;;;;;;;;21.20;46.00;;;;;;5057724;28;19999;-80
2023/06/05 01:44:35;;;;;;;;;;;21.30;46.00;;;;;;5057616;28;19920;-80
2023/06/05 01:47:01;;;;;;;;;;;21.20;46.00;;;;;;5040298;28;19936;-80
2023/06/05 01:49:27;;;;;;;;;;;21.20;46.00;;;;;;5039508;28;19923;-80
2023/06/05 01:51:54;;;;;;;;;;;21.20;46.00;;;;;;5040103;28;19920;-80
2023/06/05 01:54:26;;;;;;;;;;;21.20;46.10;;;;;;5038059;28;19995;-80
2023/06/05 01:56:52;;;;;;;;;;;21.20;46.10;;;;;;5038411;28;19909;-81
2023/06/05 01:59:18;;;;;;;;;;;21.20;46.10;;;;;;5054330;28;19917;-80
2023/06/05 02:01:44;;;;;;;;;;;21.10;46.10;;;;;;5038799;28;20179;-80
2023/06/05 02:04:16;;;;;;;;;;;21.10;46.10;;;;;;5039329;28;19920;-80
2023/06/05 02:06:46;;;;;;;;;;;21.10;46.10;;;;;;5038768;28;19909;-81
2023/06/05 02:09:12;;;;;;;;;;;21.10;46.10;;;;;;5039310;28;20297;-80
2023/06/05 02:11:38;;;;;;;;;;;21.10;46.20;;;;;;5055076;28;19913;-80
2023/06/05 02:14:05;;;;;;;;;;;21.10;46.20;;;;;;5038117;28;20290;-80
2023/06/05 02:16:31;;;;;;;;;;;21.00;46.10;;;;;;5038697;28;19973;-80
2023/06/05 02:19:04;;;;;;;;;;;21.00;46.10;;;;;;5054374;28;19909;-80
2023/06/05 02:21:32;;;;;;;;;;;21.00;46.10;;;;;;5037295;28;19983;-80
2023/06/05 02:23:58;;;;;;;;;;;21.00;46.20;;;;;;5038401;28;20136;-80
2023/06/05 02:26:23;;;;;;;;;;;21.00;46.20;;;;;;5039532;28;20238;-80
2023/06/05 02:28:50;;;;;;;;;;;21.00;46.20;;;;;;5057484;28;20379;-80
2023/06/05 02:31:16;;;;;;;;;;;21.00;46.20;;;;;;5040657;28;19919;-80
2023/06/05 02:33:41;;;;;;;;;;;21.00;46.20;;;;;;5056601;28;20000;-80
2023/06/05 02:36:07;;;;;;;;;;;21.00;46.20;;;;;;5055248;28;20003;-80
2023/06/05 02:38:35;;;;;;;;;;;20.90;46.20;;;;;;5039928;28;19974;-80
2023/06/05 02:41:01;;;;;;;;;;;20.90;46.20;;;;;;5056778;28;19908;-80
2023/06/05 02:43:26;;;;;;;;;;;20.90;46.60;;;;;;5038518;28;19924;-80
2023/06/05 02:45:52;;;;;;;;;;;20.90;46.30;;;;;;5054606;28;19909;-80
2023/06/05 02:48:18;;;;;;;;;;;20.90;46.30;;;;;;5038248;28;19909;-80
2023/06/05 02:50:43;;;;;;;;;;;20.90;46.30;;;;;;5038195;28;20297;-80
2023/06/05 02:53:10;;;;;;;;;;;20.80;46.30;;;;;;5038867;28;19909;-80
2023/06/05 02:55:36;;;;;;;;;;;20.80;46.30;;;;;;5039073;28;19909;-80
2023/06/05 02:58:03;;;;;;;;;;;20.80;46.30;;;;;;5038039;28;19913;-80
2023/06/05 03:00:28;;;;;;;;;;;20.80;46.30;;;;;;5038124;28;19962;-80
2023/06/05 03:02:55;;;;;;;;;;;20.80;46.30;;;;;;5038142;28;19916;-80
2023/06/05 03:05:26;;;;;;;;;;;20.80;46.30;;;;;;5056401;28;19920;-80
2023/06/05 03:07:53;;;;;;;;;;;20.70;46.30;;;;;;5037683;28;19939;-80
2023/06/05 03:10:20;;;;;;;;;;;20.80;46.30;;;;;;5038133;28;20024;-80
2023/06/05 03:12:45;;;;;;;;;;;20.70;46.30;;;;;;5055771;28;19924;-81
2023/06/05 03:15:13;;;;;;;;;;;20.70;46.30;;;;;;5055771;28;19909;-80
2023/06/05 03:17:39;;;;;;;;;;;20.70;46.30;;;;;;5037783;28;19933;-81
2023/06/05 03:20:10;;;;;;;;;;;20.70;46.30;;;;;;5037003;28;19908;-81
2023/06/05 03:22:36;;;;;;;;;;;20.70;46.40;;;;;;5037825;28;19951;-81
2023/06/05 03:25:02;;;;;;;;;;;20.70;46.30;;;;;;5036485;28;19956;-81
2023/06/05 03:27:27;;;;;;;;;;;20.60;46.30;;;;;;5037203;28;19999;-81
2023/06/05 03:29:53;;;;;;;;;;;20.70;46.40;;;;;;5054293;28;20265;-81
2023/06/05 03:32:18;;;;;;;;;;;20.60;46.30;;;;;;5053962;28;20161;-81
2023/06/05 03:34:48;;;;;;;;;;;20.60;46.30;;;;;;5035784;28;20032;-81
2023/06/05 03:37:14;;;;;;;;;;;20.60;46.30;;;;;;5037213;28;20004;-82
2023/06/05 03:39:40;;;;;;;;;;;20.60;46.40;;;;;;5054692;28;20011;-81
2023/06/05 03:42:09;;;;;;;;;;;20.60;46.40;;;;;;5036240;28;20037;-81
2023/06/05 03:44:34;;;;;;;;;;;20.60;46.40;;;;;;5053199;28;20283;-81
2023/06/05 03:47:00;;;;;;;;;;;20.60;46.40;;;;;;5034420;28;19920;-81
2023/06/05 03:49:25;;;;;;;;;;;20.60;46.40;;;;;;5038134;28;20271;-81
2023/06/05 03:51:52;;;;;;;;;;;20.60;46.40;;;;;;5037133;28;19920;-81
2023/06/05 03:54:17;;;;;;;;;;;20.60;46.40;;;;;;5055558;28;19971;-82
2023/06/05 03:56:49;;;;;;;;;;;20.60;46.40;;;;;;5038155;28;20132;-81
2023/06/05 03:59:19;;;;;;;;;;;20.60;46.40;;;;;;5039234;28;20283;-81
2023/06/05 04:01:45;;;;;;;;;;;20.60;46.40;;;;;;5038663;28;19908;-81
2023/06/05 04:04:11;;;;;;;;;;;20.60;46.50;;;;;;5039521;28;20243;-81
2023/06/05 04:06:36;;;;;;;;;;;20.50;46.40;;;;;;5040567;28;20004;-81
2023/06/05 04:09:09;;;;;;;;;;;20.50;46.40;;;;;;5057980;28;19951;-81
2023/06/05 04:11:34;;;;;;;;;;;20.50;46.50;;;;;;5039670;28;20298;-81
2023/06/05 04:14:00;;;;;;;;;;;20.50;46.80;;;;;;5038815;28;19909;-81
2023/06/05 04:16:25;;;;;;;;;;;20.50;46.40;;;;;;5056155;28;20109;-81
2023/06/05 04:18:51;;;;;;;;;;;20.50;46.40;;;;;;5038287;28;19999;-81
2023/06/05 04:21:23;;;;;;;;;;;20.50;46.40;;;;;;5057595;28;19909;-81
2023/06/05 04:23:48;;;;;;;;;;;20.50;46.40;;;;;;5038357;28;19916;-81
2023/06/05 04:26:15;;;;;;;;;;;20.50;46.40;;;;;;5054234;28;19970;-81
2023/06/05 04:28:42;;;;;;;;;;;20.60;46.50;;;;;;5037215;28;19917;-81
2023/06/05 04:31:08;;;;;;;;;;;20.60;46.50;;;;;;5037925;28;20325;-81
2023/06/05 04:33:33;;;;;;;;;;;20.60;46.40;;;;;;5054579;28;19951;-81
2023/06/05 04:35:59;;;;;;;;;;;20.60;46.40;;;;;;5052820;28;19919;-81
2023/06/05 04:38:24;;;;;;;;;;;20.60;46.40;;;;;;5054381;28;19966;-81
2023/06/05 04:40:50;;;;;;;;;;;20.60;46.40;;;;;;5054396;28;19909;-81
2023/06/05 04:43:16;;;;;;;;;;;20.60;46.30;;;;;;5054890;28;20194;-81
2023/06/05 04:45:42;;;;;;;;;;;20.60;46.30;;;;;;5054253;28;19908;-81
2023/06/05 04:48:10;;;;;;;;;;;20.70;46.30;;;;;;5038051;28;19919;-82
2023/06/05 04:53:41;;;;;;;;;;;20.70;46.30;;;;;;5054650;28;19974;-81
2023/06/05 04:56:07;;;;;;;;;;;20.70;46.20;;;;;;5055627;28;19913;-81
2023/06/05 04:58:33;;;;;;;;;;;20.70;46.60;;;;;;5036153;28;19909;-81
2023/06/05 05:01:06;;;;;;;;;;;20.80;46.30;;;;;;5033980;28;19909;-81
2023/06/05 05:03:31;;;;;;;;;;;20.80;46.30;;;;;;5036207;28;19924;-81
2023/06/05 05:05:57;;;;;;;;;;;20.80;46.40;;;;;;5034580;28;19908;-81
2023/06/05 05:08:23;;;;;;;;;;;20.90;46.70;;;;;;5052644;28;20296;-81
2023/06/05 05:10:48;;;;;;;;;;;20.90;46.60;;;;;;5034445;28;20306;-81
2023/06/05 05:13:14;;;;;;;;;;;20.90;46.50;;;;;;5036235;28;20293;-81
2023/06/05 05:15:40;;;;;;;;;;;21.00;46.80;;;;;;5053437;28;19909;-81
2023/06/05 05:18:05;;;;;;;;;;;21.00;46.30;;;;;;5034658;28;19962;-81
2023/06/05 05:20:32;;;;;;;;;;;21.10;46.40;;;;;;5034074;28;19974;-81
2023/06/05 05:23:00;;;;;;;;;;;21.10;46.30;;;;;;5052801;28;20306;-81
2023/06/05 05:25:26;;;;;;;;;;;21.10;46.20;;;;;;5035291;28;20015;-81
2023/06/05 05:27:52;;;;;;;;;;;21.20;46.30;;;;;;5052669;28;20004;-81
2023/06/05 05:30:17;;;;;;;;;;;21.20;46.30;;;;;;5032580;28;19919;-81
2023/06/05 05:32:43;;;;;;;;;;;21.30;46.30;;;;;;5032327;28;19924;-81
2023/06/05 05:35:08;;;;;;;;;;;21.30;46.20;;;;;;5033623;28;19927;-81
2023/06/05 05:37:34;;;;;;;;;;;21.30;46.10;;;;;;5049377;28;20007;-81
2023/06/05 05:40:00;;;;;;;;;;;21.40;46.10;;;;;;5032775;28;19909;-81
2023/06/05 05:42:25;;;;;;;;;;;21.50;46.20;;;;;;5049628;28;20188;-81
2023/06/05 05:44:51;;;;;;;;;;;21.50;46.00;;;;;;5029201;28;19913;-81
2023/06/05 05:47:16;;;;;;;;;;;21.60;46.00;;;;;;5031379;28;19909;-81
2023/06/05 05:49:42;;;;;;;;;;;21.60;45.90;;;;;;5027477;28;19909;-81
2023/06/05 05:52:08;;;;;;;;;;;21.70;45.80;;;;;;5027775;28;19963;-81
2023/06/05 05:54:34;;;;;;;;;;;21.80;45.80;;;;;;5028123;28;19908;-81
2023/06/05 05:57:00;;;;;;;;;;;21.90;45.70;;;;;;5028431;28;20172;-81
2023/06/05 05:59:26;;;;;;;;;;;22.00;45.60;;;;;;5047528;28;20187;-81
2023/06/05 06:01:52;;;;;;;;;;;22.10;45.70;;;;;;5029925;28;20130;-81
2023/06/05 06:04:18;;;;;;;;;;;22.20;45.70;;;;;;5029713;28;20161;-81
2023/06/05 06:06:47;;;;;;;;;;;22.30;45.60;;;;;;5030670;28;20027;-81
2023/06/05 06:09:14;;;;;;;;;;;22.30;45.60;;;;;;5047937;28;19917;-81
2023/06/05 06:11:41;;;;;;;;;;;22.50;45.60;;;;;;5027026;28;19909;-81
2023/06/05 06:14:09;;;;;;;;;;;22.50;45.50;;;;;;5026935;28;20008;-81
2023/06/05 06:16:36;;;;;;;;;;;22.60;45.40;;;;;;5028166;28;19909;-81
2023/06/05 06:19:02;;;;;;;;;;;22.70;45.40;;;;;;5027813;28;19909;-81
2023/06/05 06:21:27;;;;;;;;;;;22.80;45.40;;;;;;5027282;28;20011;-81
2023/06/05 06:23:54;;;;;;;;;;;22.90;45.30;;;;;;5042831;28;20015;-81
2023/06/05 06:26:21;;;;;;;;;;;23.00;45.30;;;;;;5025061;28;19983;-80
2023/06/05 06:28:46;;;;;;;;;;;23.10;45.20;;;;;;5043711;28;20109;-81
2023/06/05 06:31:12;;;;;;;;;;;23.10;45.20;;;;;;5044176;28;19917;-81
2023/06/05 06:33:38;;;;;;;;;;;23.20;45.10;;;;;;5045248;28;20366;-81
2023/06/05 06:36:04;;;;;;;;;;;23.30;45.10;;;;;;5026279;28;20012;-82
2023/06/05 06:38:31;;;;;;;;;;;23.40;45.00;;;;;;5046246;28;19958;-82
2023/06/05 06:41:11;;;;;;;;;;;23.50;45.00;;;;;;5032073;28;19916;-82
2023/06/05 06:43:38;;;;;;;;;;;23.60;44.90;;;;;;5028691;28;20199;-81
2023/06/05 06:46:04;;;;;;;;;;;23.70;44.90;;;;;;5031802;28;20275;-81
2023/06/05 06:48:30;;;;;;;;;;;23.80;44.90;;;;;;5046099;28;19974;-81
2023/06/05 06:50:55;;;;;;;;;;;23.90;44.80;;;;;;5048439;28;20234;-82
2023/06/05 06:53:21;;;;;;;;;;;24.00;44.60;;;;;;5048121;28;20352;-82
2023/06/05 06:55:47;;;;;;;;;;;24.20;44.50;;;;;;5030592;28;20430;-81
2023/06/05 06:58:12;;;;;;;;;;;24.40;44.40;;;;;;5030302;28;19909;-82
2023/06/05 07:00:38;;;;;;;;;;;24.50;44.20;;;;;;5028387;28;19908;-82
2023/06/05 07:03:04;;;;;;;;;;;24.80;44.10;;;;;;5030222;28;19916;-82
2023/06/05 07:05:31;;;;;;;;;;;25.00;43.90;;;;;;5031411;28;19923;-82
2023/06/05 07:08:00;;;;;;;;;;;25.20;43.70;;;;;;5031223;28;19967;-82
2023/06/05 07:10:27;;;;;;;;;;;25.60;43.60;;;;;;5030718;28;19913;-82
2023/06/05 07:12:52;;;;;;;;;;;25.90;43.40;;;;;;5030863;28;20263;-82
2023/06/05 07:15:18;;;;;;;;;;;26.20;43.10;;;;;;5027897;28;19939;-82
2023/06/05 07:17:43;;;;;;;;;;;26.60;42.90;;;;;;5026673;28;20199;-82
2023/06/05 07:20:09;;;;;;;;;;;26.80;42.60;;;;;;5027930;28;19916;-82
2023/06/05 07:22:35;;;;;;;;;;;27.10;42.40;;;;;;5025616;28;19963;-82
2023/06/05 07:25:01;;;;;;;;;;;27.40;42.20;;;;;;5025385;28;20155;-81
2023/06/05 07:27:28;;;;;;;;;;;27.60;42.00;;;;;;5025080;28;19908;-82
2023/06/05 07:29:54;;;;;;;;;;;27.80;41.90;;;;;;5025083;28;19909;-82
2023/06/05 07:32:20;;;;;;;;;;;28.00;41.70;;;;;;5026775;28;19971;-82
2023/06/05 07:34:46;;;;;;;;;;;28.30;41.70;;;;;;5024129;28;19948;-82
2023/06/05 07:37:12;;;;;;;;;;;28.50;41.50;;;;;;5024392;28;19975;-82
2023/06/05 07:39:37;;;;;;;;;;;28.70;41.30;;;;;;5026047;28;20191;-82
2023/06/05 07:42:03;;;;;;;;;;;28.80;41.20;;;;;;5046181;28;19913;-82
2023/06/05 07:44:28;;;;;;;;;;;29.10;41.20;;;;;;5029320;28;20089;-82
2023/06/05 07:46:54;;;;;;;;;;;29.20;41.00;;;;;;5029193;28;19923;-82
2023/06/05 07:49:20;;;;;;;;;;;29.30;40.90;;;;;;5047165;28;19920;-82
2023/06/05 07:51:47;;;;;;;;;;;29.50;41.00;;;;;;5046322;28;19920;-82
2023/06/05 07:54:15;;;;;;;;;;;29.60;40.80;;;;;;5030973;28;19924;-80
2023/06/05 07:56:41;;;;;;;;;;;29.70;40.80;;;;;;5030390;28;20054;-79
2023/06/05 07:59:07;;;;;;;;;;;29.90;40.80;;;;;;5030353;28;20246;-80
2023/06/05 08:01:36;;;;;;;;;;;30.10;40.60;;;;;;5029377;28;19913;-79
2023/06/05 08:04:05;;;;;;;;;;;30.20;40.50;;;;;;5045304;28;19977;-79
2023/06/05 08:06:31;;;;;;;;;;;30.40;40.50;;;;;;5027862;28;20286;-79
2023/06/05 08:09:00;;;;;;;;;;;30.50;40.40;;;;;;5042673;28;19909;-79
2023/06/05 08:11:26;;;;;;;;;;;30.70;40.30;;;;;;5040579;28;19938;-79
2023/06/05 08:13:52;;;;;;;;;;;30.80;40.20;;;;;;5027509;28;20096;-80
2023/06/05 08:16:18;;;;;;;;;;;30.90;40.20;;;;;;5028378;28;20271;-80
2023/06/05 08:18:43;;;;;;;;;;;31.10;40.10;;;;;;5029388;28;19915;-80
2023/06/05 08:21:09;;;;;;;;;;;31.20;40.10;;;;;;5028956;28;20282;-80
2023/06/05 08:23:34;;;;;;;;;;;31.40;40.00;;;;;;5029076;28;19974;-80
2023/06/05 08:26:00;;;;;;;;;;;31.50;40.00;;;;;;5028676;28;20063;-80
2023/06/05 08:28:25;;;;;;;;;;;31.60;39.80;;;;;;5046359;28;19920;-80
2023/06/05 08:30:54;;;;;;;;;;;31.80;39.80;;;;;;5028914;28;19923;-80
2023/06/05 08:33:20;;;;;;;;;;;31.90;39.70;;;;;;5044465;28;19919;-80
2023/06/05 08:35:45;;;;;;;;;;;32.00;39.70;;;;;;5048963;28;19920;-80
2023/06/05 08:38:11;;;;;;;;;;;32.10;39.60;;;;;;5030950;28;19951;-81
2023/06/05 08:40:38;;;;;;;;;;;32.20;39.60;;;;;;5048204;28;19920;-80
2023/06/05 08:43:04;;;;;;;;;;;32.30;39.60;;;;;;5049391;28;19917;-80
2023/06/05 08:45:30;;;;;;;;;;;32.30;39.40;;;;;;5031011;28;19920;-80
2023/06/05 08:47:58;;;;;;;;;;;32.50;39.40;;;;;;5032425;28;20287;-80
2023/06/05 08:50:25;;;;;;;;;;;32.60;39.40;;;;;;5030396;28;19975;-80
2023/06/05 08:52:51;;;;;;;;;;;32.60;39.40;;;;;;5049318;28;20028;-80
2023/06/05 08:55:16;;;;;;;;;;;32.70;39.80;;;;;;5047448;28;20004;-82
2023/06/05 08:57:42;;;;;;;;;;;32.80;39.30;;;;;;5045115;28;19956;-80
2023/06/05 09:00:10;;;;;;;;;;;32.80;39.30;;;;;;5046035;28;19909;-80
2023/06/05 09:02:40;;;;;;;;;;;32.90;39.30;;;;;;5028098;28;19921;-80
2023/06/05 09:05:08;;;;;;;;;;;32.90;39.40;;;;;;5030948;28;20036;-80
2023/06/05 09:07:34;;;;;;;;;;;32.90;39.40;;;;;;5030333;28;19923;-80
2023/06/05 09:09:59;;;;;;;;;;;32.90;39.40;;;;;;5046857;28;19909;-80
2023/06/05 09:12:25;;;;;;;;;;;32.90;39.40;;;;;;5030555;28;19913;-81
2023/06/05 12:17:35;;;;;;;;;;;26.30;42.90;;;;;;5007192;28;20069;-4
2023/06/05 12:20:00;;;;;;;;;;;26.30;43.00;;;;;;5007571;28;20146;-4
2023/06/05 12:22:33;;;;;;;;;;;26.30;42.80;;;;;;5006826;28;19913;-4
2023/06/05 12:25:17;;;;;;;;;;;26.40;42.20;;;;;;5018668;28;20247;-4
2023/06/05 12:27:46;;;;;;;;;;;26.30;41.80;;;;;;5018271;28;19917;-4
2023/06/05 12:30:12;;;;;;;;;;;26.00;41.90;;;;;;5018978;28;19964;-4
2023/06/05 12:32:41;;;;;;;;;;;25.90;42.10;;;;;;5018529;28;19910;-4
2023/06/05 12:35:18;;;;;;;;;;;25.70;41.40;;;;;;5018754;28;19909;-6
2023/06/05 12:37:45;;;;;;;;;;;25.60;41.90;;;;;;5015675;28;19929;-6
2023/06/05 12:40:11;;;;;;;;;;;25.60;41.90;;;;;;5016705;28;19925;-4
2023/06/05 12:42:43;;;;;;;;;;;25.40;41.70;;;;;;5000767;28;19909;-4
2023/06/05 12:45:20;;;;;;;;;;;25.50;42.10;;;;;;5016604;28;19961;-4
2023/06/05 12:47:45;;;;;;;;;;;25.60;42.00;;;;;;5016662;28;19920;-4
2023/06/05 12:50:12;;;;;;;;;;;25.60;41.90;;;;;;5016940;28;19909;-4
2023/06/05 12:52:41;;;;;;;;;;;25.50;41.60;;;;;;5017113;28;19910;-4
2023/06/05 12:55:16;;;;;;;;;;;25.60;41.70;;;;;;4999045;28;19996;-5
2023/06/05 12:57:45;;;;;;;;;;;25.40;41.40;;;;;;5016822;28;19932;-4
2023/06/05 13:00:13;;;;;;;;;;;25.40;41.20;;;;;;5017054;28;19916;-4
2023/06/05 13:02:46;;;;;;;;;;;25.40;41.10;;;;;;4997274;28;19922;-4
2023/06/05 13:05:13;;;;;;;;;;;25.40;41.20;;;;;;4998401;28;19968;-4
2023/06/05 13:07:39;;;;;;;;;;;25.40;41.40;;;;;;5011512;28;19995;-4
2023/06/05 13:10:11;;;;;;;;;;;25.20;41.50;;;;;;5018057;28;19913;-4
2023/06/05 13:12:36;;;;;;;;;;;25.30;41.70;;;;;;5017193;28;19975;-4
2023/06/05 13:15:03;;;;;;;;;;;25.30;41.60;;;;;;5016586;28;19910;-4
2023/06/05 13:17:33;;;;;;;;;;;25.40;41.60;;;;;;5016833;28;20287;-4
2023/06/05 13:20:06;;;;;;;;;;;25.20;41.80;;;;;;5016386;28;19945;-5
2023/06/05 13:22:32;;;;;;;;;;;25.30;42.00;;;;;;5014739;28;19992;-4
2023/06/05 13:24:58;;;;;;;;;;;25.20;42.30;;;;;;5017689;28;20016;-4
2023/06/05 13:27:23;;;;;;;;;;;25.40;42.20;;;;;;5017560;28;19964;-4
2023/06/05 13:29:57;;;;;;;;;;;25.40;42.30;;;;;;5015870;28;19921;-4
2023/06/05 13:32:23;;;;;;;;;;;25.50;43.50;;;;;;5015967;28;19916;-5
2023/06/05 13:34:48;;;;;;;;;;;25.50;42.70;;;;;;5015735;28;19996;-4
2023/06/05 13:37:14;;;;;;;;;;;25.40;42.00;;;;;;5016570;28;20149;-4
2023/06/05 13:39:44;;;;;;;;;;;25.40;42.40;;;;;;5014769;28;19914;-4
2023/06/05 13:42:11;;;;;;;;;;;25.40;41.80;;;;;;4999700;28;19945;-4
2023/06/05 13:44:37;;;;;;;;;;;25.50;42.10;;;;;;5016958;28;19914;-5
2023/06/05 13:47:03;;;;;;;;;;;25.40;40.70;;;;;;5027745;22;19939;-71
2023/06/05 13:49:31;;;;;;;;;;;25.20;41.00;;;;;;4987380;28;19910;-71
2023/06/05 13:51:57;;;;;;;;;;;25.20;41.80;;;;;;4988299;28;19960;-71
2023/06/05 13:54:22;;;;;;;;;;;25.30;41.50;;;;;;4987265;28;19949;-71
2023/06/05 13:56:51;;;;;;;;;;;25.50;41.70;;;;;;4989970;28;19910;-71
2023/06/05 13:59:17;;;;;;;;;;;25.60;41.80;;;;;;4988086;28;19979;-70
2023/06/05 14:01:46;;;;;;;;;;;25.60;41.60;;;;;;4986803;28;20150;-70
2023/06/05 14:04:11;;;;;;;;;;;25.50;41.20;;;;;;4974973;28;20435;-71
2023/06/05 14:06:39;;;;;;;;;;;25.40;41.20;;;;;;4989849;28;19910;-72
2023/06/05 14:09:05;;;;;;;;;;;25.50;41.30;;;;;;4968012;28;20288;-71
2023/06/05 14:11:34;;;;;;;;;;;25.30;41.50;;;;;;4967899;28;20144;-71
2023/06/05 14:14:03;;;;;;;;;;;25.40;41.50;;;;;;4968591;28;19914;-71
2023/06/05 14:16:29;;;;;;;;;;;25.40;41.30;;;;;;4987175;28;19910;-71
2023/06/05 14:18:54;;;;;;;;;;;25.50;41.40;;;;;;4968939;28;19937;-71
2023/06/05 14:21:20;;;;;;;;;;;25.60;41.40;;;;;;4967889;28;20016;-71
2023/06/05 14:23:46;;;;;;;;;;;25.60;41.50;;;;;;4968395;28;19909;-71
2023/06/05 14:26:11;;;;;;;;;;;25.60;41.40;;;;;;4969861;28;20174;-71
2023/06/05 14:28:37;;;;;;;;;;;25.60;41.20;;;;;;4985327;28;19921;-71
2023/06/05 14:31:06;;;;;;;;;;;25.60;41.00;;;;;;4986621;28;19918;-71
2023/06/05 14:33:33;;;;;;;;;;;25.60;40.70;;;;;;4969796;28;19917;-71
2023/06/05 14:36:02;;;;;;;;;;;25.40;40.30;;;;;;4976987;28;19948;-71
2023/06/05 14:38:28;;;;;;;;;;;25.40;40.40;;;;;;4969860;28;19910;-71
2023/06/05 14:40:57;;;;;;;;;;;25.30;40.30;;;;;;4967729;28;19917;-71
2023/06/05 14:43:23;;;;;;;;;;;25.40;40.50;;;;;;4984922;28;19933;-71
2023/06/05 14:45:49;;;;;;;;;;;25.50;40.50;;;;;;4967609;28;19995;-71
2023/06/05 14:48:14;;;;;;;;;;;25.40;40.20;;;;;;4969233;28;19910;-71
2023/06/05 14:50:40;;;;;;;;;;;25.40;40.30;;;;;;4988880;28;19965;-71
2023/06/05 14:53:06;;;;;;;;;;;25.40;40.20;;;;;;4974181;28;19909;-71
2023/06/05 14:55:36;;;;;;;;;;;25.40;39.90;;;;;;4973519;28;19909;-71
2023/06/05 14:58:02;;;;;;;;;;;25.40;40.50;;;;;;4975815;28;19910;-72
2023/06/05 15:00:29;;;;;;;;;;;25.40;40.40;;;;;;4993903;28;19909;-71
2023/06/05 15:02:56;;;;;;;;;;;25.20;40.10;;;;;;4990079;28;19960;-71
2023/06/05 15:05:22;;;;;;;;;;;25.20;40.40;;;;;;4983627;28;20000;-71
2023/06/05 15:07:48;;;;;;;;;;;25.30;40.70;;;;;;4967191;28;19910;-71
2023/06/05 15:10:15;;;;;;;;;;;25.40;40.50;;;;;;4967331;28;19918;-71
2023/06/05 15:12:40;;;;;;;;;;;25.40;40.50;;;;;;4982307;28;19984;-71
2023/06/05 15:15:09;;;;;;;;;;;25.50;40.60;;;;;;4966260;28;20271;-71
2023/06/05 15:17:38;;;;;;;;;;;25.50;40.10;;;;;;4965922;28;20270;-71
2023/06/05 15:20:05;;;;;;;;;;;25.60;40.50;;;;;;4968169;28;19910;-71
2023/06/05 15:22:31;;;;;;;;;;;25.40;40.50;;;;;;4969994;28;20206;-71
2023/06/05 15:24:57;;;;;;;;;;;25.40;40.80;;;;;;4986374;28;20370;-71
2023/06/05 15:27:25;;;;;;;;;;;25.30;39.90;;;;;;4985513;28;20228;-71
2023/06/05 15:29:51;;;;;;;;;;;25.40;40.40;;;;;;4967019;28;19906;-71
2023/06/05 15:32:16;;;;;;;;;;;25.30;40.40;;;;;;4967878;28;19920;-71
2023/06/05 15:34:42;;;;;;;;;;;25.40;40.80;;;;;;4989779;28;19918;-71
2023/06/05 15:37:07;;;;;;;;;;;25.40;40.80;;;;;;4992470;28;19938;-71
2023/06/05 15:39:33;;;;;;;;;;;25.50;40.80;;;;;;4991473;28;19917;-71
2023/06/05 15:42:01;;;;;;;;;;;25.60;41.00;;;;;;4982148;28;19913;-71
2023/06/05 15:44:55;;;;;;;;;;;25.60;41.10;;;;;;5010573;28;19928;-72
2023/06/05 15:47:21;;;;;;;;;;;25.70;41.10;;;;;;4994743;28;19926;-71
2023/06/05 15:49:49;;;;;;;;;;;25.70;41.20;;;;;;4993865;28;20012;-71
2023/06/05 15:52:15;;;;;;;;;;;25.70;41.00;;;;;;4990437;28;19920;-71
2023/06/05 15:54:41;;;;;;;;;;;25.70;41.40;;;;;;5006722;28;20404;-72
2023/06/05 15:57:07;;;;;;;;;;;25.70;41.20;;;;;;4986753;28;20003;-71
2023/06/05 15:59:33;;;;;;;;;;;25.60;41.50;;;;;;4987852;28;20279;-71
2023/06/05 16:02:02;;;;;;;;;;;25.60;41.60;;;;;;4989779;28;19972;-71
2023/06/05 16:04:28;;;;;;;;;;;25.60;41.60;;;;;;4989882;28;20347;-71
2023/06/05 16:06:54;;;;;;;;;;;25.70;41.90;;;;;;5009272;28;19913;-71
2023/06/05 16:09:20;;;;;;;;;;;25.70;41.80;;;;;;4986925;28;19941;-71
2023/06/05 16:11:46;;;;;;;;;;;25.60;41.90;;;;;;4987065;28;19957;-71
2023/06/05 16:14:11;;;;;;;;;;;25.50;41.50;;;;;;4991494;28;20154;-71
2023/06/05 16:16:37;;;;;;;;;;;25.50;41.40;;;;;;4991180;28;19917;-71
2023/06/05 16:19:05;;;;;;;;;;;25.30;41.60;;;;;;4985423;28;19931;-72
2023/06/05 16:21:31;;;;;;;;;;;25.40;41.60;;;;;;4987300;28;20113;-70
2023/06/05 16:23:57;;;;;;;;;;;25.40;41.20;;;;;;4986976;28;19913;-71
2023/06/05 16:26:23;;;;;;;;;;;25.20;41.50;;;;;;4985720;28;20217;-71
2023/06/05 16:28:48;;;;;;;;;;;25.10;41.60;;;;;;5003845;28;19917;-71
2023/06/05 16:31:14;;;;;;;;;;;25.20;41.80;;;;;;4983666;28;19931;-71
2023/06/05 16:33:40;;;;;;;;;;;25.30;41.80;;;;;;4986290;28;19909;-71
2023/06/05 16:36:06;;;;;;;;;;;25.20;41.90;;;;;;5005752;28;20227;-71
2023/06/05 16:38:33;;;;;;;;;;;25.10;42.10;;;;;;5010334;28;19945;-71
2023/06/05 16:40:59;;;;;;;;;;;25.00;42.20;;;;;;4993346;28;19909;-71
2023/06/05 16:43:25;;;;;;;;;;;25.10;42.20;;;;;;4993413;28;19918;-71
2023/06/05 16:45:54;;;;;;;;;;;25.10;42.20;;;;;;4992913;28;19918;-71
2023/06/05 16:48:20;;;;;;;;;;;25.20;42.20;;;;;;5006923;28;19909;-71
2023/06/05 16:50:48;;;;;;;;;;;25.20;42.30;;;;;;4989237;28;20378;-71
2023/06/05 16:53:14;;;;;;;;;;;25.10;42.20;;;;;;5004065;28;20098;-71
2023/06/05 16:55:39;;;;;;;;;;;25.10;42.10;;;;;;5002625;28;20358;-71
2023/06/05 16:58:05;;;;;;;;;;;25.10;41.90;;;;;;5005548;28;19910;-71
2023/06/05 17:00:31;;;;;;;;;;;25.10;42.10;;;;;;5013146;28;19909;-71
2023/06/05 17:02:56;;;;;;;;;;;25.10;42.00;;;;;;5014254;28;19924;-71
2023/06/05 17:05:22;;;;;;;;;;;25.10;42.00;;;;;;4998452;28;19925;-71
2023/06/05 17:07:49;;;;;;;;;;;25.10;41.90;;;;;;5015070;28;19932;-71
2023/06/05 17:10:20;;;;;;;;;;;25.10;42.00;;;;;;5016056;28;19992;-71
2023/06/05 17:12:45;;;;;;;;;;;25.10;42.10;;;;;;5015228;28;19909;-71
2023/06/05 17:15:14;;;;;;;;;;;25.00;42.10;;;;;;5015537;28;19971;-71
2023/06/05 17:17:40;;;;;;;;;;;25.00;42.10;;;;;;4997983;28;19920;-72
2023/06/05 17:20:07;;;;;;;;;;;25.00;42.10;;;;;;5015257;28;19917;-72
2023/06/05 17:22:36;;;;;;;;;;;25.00;42.00;;;;;;5015877;28;20283;-71